CMA CGM Kingfish — A8YW9 — position and weather

sailwx.info

Track history (hours):
 
Tides and Currents Weather Stations Pressure Air Temp Water Temp Dewpoint Dewpoint Depression Visibility Wind Speed Wind Dir Waves Ship Positions

CMA CGM Kingfish

Last reported at 2015-Aug-30 00:21 UTC. Time now 2015-Sep-01 18:11 UTC.
Position N 30°31' E 122°25'.

Length 294 m; draft 11.1 m.

Type: Ship (hazmat cat A). MMSI: 636015147.

Date/timePositionNaut miles runAvg speedWind from/ knotsBaromVisibWave heightAir tempDewpointWater temp
2015-Aug-30 00:21N 30°31' E 122°25'1213.8
2015-Aug-29 23:30N 30°33' E 122°12'8 8.0
2015-Aug-29 22:33N 30°37' E 122°04'0 0.0
2015-Aug-29 21:33N 30°37' E 122°04'0 0.0
2015-Aug-29 11:30N 30°37' E 122°04'56 2.5
2015-Aug-28 13:28N 29°44' E 122°24'1611.8
2015-Aug-28 12:06N 29°55' E 122°10'4 0.4
2015-Aug-28 02:18N 29°54' E 122°05'3810.0
2015-Aug-27 22:31N 29°24' E 122°30'62316.4
2015-Aug-26 08:32N 22°13' E 114°10'19 9.6
2015-Aug-26 06:30N 22°24' E 113°53'13 0.7
2015-Aug-25 11:33N 22°19' E 114°06'2 1.5
2015-Aug-25 10:22N 22°20' E 114°08'0 0.0
2015-Aug-25 09:31N 22°20' E 114°08'0 0.0
2015-Aug-25 08:31N 22°20' E 114°08'0 0.0
2015-Aug-25 07:31N 22°20' E 114°08'0 0.0
2015-Aug-25 06:31N 22°20' E 114°08'0 0.0
2015-Aug-25 05:31N 22°20' E 114°08'0 0.0
2015-Aug-25 04:31N 22°20' E 114°08'2 0.9
2015-Aug-25 02:33N 22°19' E 114°06'1110.7
2015-Aug-25 01:33N 22°10' E 114°13'9 9.1
2015-Aug-25 00:33N 22°08' E 114°22'  
2015-Aug-21 09:26N 01°17' E 103°58'0 0.0
2015-Aug-21 07:17N 01°17' E 103°58'0 0.0
2015-Aug-21 04:14N 01°17' E 103°58'0 0.2
2015-Aug-21 03:32N 01°17' E 103°58'0 0.1
2015-Aug-21 02:29N 01°17' E 103°58'0 0.0
2015-Aug-21 01:32N 01°17' E 103°58'0 0.0
2015-Aug-21 00:29N 01°17' E 103°58'0 0.3
2015-Aug-20 23:32N 01°17' E 103°58'3 3.6
2015-Aug-20 22:34N 01°13' E 103°56'7 7.2
2015-Aug-20 21:32N 01°10' E 103°50'12215.3
2015-Aug-20 13:33N 02°07' E 102°01'5819.3
2015-Aug-20 10:33N 02°41' E 101°14'3718.5
2015-Aug-20 08:33N 03°03' E 100°44'  
Track history (hours):
 
Tides and Currents Weather Stations Pressure Air Temp Water Temp Dewpoint Dewpoint Depression Visibility Wind Speed Wind Dir Waves Ship Positions

CMA CGM Kingfish

Last reported at 2015-Aug-30 00:21 UTC. Time now 2015-Sep-01 18:11 UTC.
Position N 30°31' E 122°25'.

Length 294 m; draft 11.1 m.

Type: Ship (hazmat cat A). MMSI: 636015147.

Date/timePositionNaut miles runAvg speedWind from/ knotsBaromVisibWave heightAir tempDewpointWater temp
2015-Aug-30 00:21N 30°31' E 122°25'1213.8
2015-Aug-29 23:30N 30°33' E 122°12'8 8.0
2015-Aug-29 22:33N 30°37' E 122°04'0 0.0
2015-Aug-29 21:33N 30°37' E 122°04'0 0.0
2015-Aug-29 11:30N 30°37' E 122°04'56 2.5
2015-Aug-28 13:28N 29°44' E 122°24'1611.8
2015-Aug-28 12:06N 29°55' E 122°10'4 0.4
2015-Aug-28 02:18N 29°54' E 122°05'3810.0
2015-Aug-27 22:31N 29°24' E 122°30'62316.4
2015-Aug-26 08:32N 22°13' E 114°10'19 9.6
2015-Aug-26 06:30N 22°24' E 113°53'13 0.7
2015-Aug-25 11:33N 22°19' E 114°06'2 1.5
2015-Aug-25 10:22N 22°20' E 114°08'0 0.0
2015-Aug-25 09:31N 22°20' E 114°08'0 0.0
2015-Aug-25 08:31N 22°20' E 114°08'0 0.0
2015-Aug-25 07:31N 22°20' E 114°08'0 0.0
2015-Aug-25 06:31N 22°20' E 114°08'0 0.0
2015-Aug-25 05:31N 22°20' E 114°08'0 0.0
2015-Aug-25 04:31N 22°20' E 114°08'2 0.9
2015-Aug-25 02:33N 22°19' E 114°06'1110.7
2015-Aug-25 01:33N 22°10' E 114°13'9 9.1
2015-Aug-25 00:33N 22°08' E 114°22'  
2015-Aug-21 09:26N 01°17' E 103°58'0 0.0
2015-Aug-21 07:17N 01°17' E 103°58'0 0.0
2015-Aug-21 04:14N 01°17' E 103°58'0 0.2
2015-Aug-21 03:32N 01°17' E 103°58'0 0.1
2015-Aug-21 02:29N 01°17' E 103°58'0 0.0
2015-Aug-21 01:32N 01°17' E 103°58'0 0.0
2015-Aug-21 00:29N 01°17' E 103°58'0 0.3
2015-Aug-20 23:32N 01°17' E 103°58'3 3.6
2015-Aug-20 22:34N 01°13' E 103°56'7 7.2
2015-Aug-20 21:32N 01°10' E 103°50'12215.3
2015-Aug-20 13:33N 02°07' E 102°01'5819.3
2015-Aug-20 10:33N 02°41' E 101°14'3718.5
2015-Aug-20 08:33N 03°03' E 100°44'  

Dump ship's entire track history